sensor_id;sensor_type;location;lat;lon;timestamp;pressure;altitude;pressure_sealevel;temperature;humidity
47218;BME280;47282;53.362;-2.222;2022-11-20T11:35:21;99641.90;;;9.06;84.91
47218;BME280;47282;53.362;-2.222;2022-11-20T11:37:49;99641.44;;;12.18;74.64
47218;BME280;47282;53.362;-2.222;2022-11-20T11:40:18;99646.07;;;14.61;67.77
47218;BME280;47282;53.362;-2.222;2022-11-20T11:42:52;99648.39;;;16.33;63.17
47218;BME280;47282;53.362;-2.222;2022-11-20T11:45:21;99649.68;;;18.03;58.41
47218;BME280;47282;53.362;-2.222;2022-11-20T11:47:51;99646.25;;;18.62;56.15
47218;BME280;47282;53.362;-2.222;2022-11-20T11:50:22;99641.90;;;19.34;54.77
47218;BME280;47282;53.362;-2.222;2022-11-20T11:52:58;99636.23;;;19.86;53.13
47218;BME280;47282;53.362;-2.222;2022-11-20T11:55:33;99634.13;;;19.83;52.58
47218;BME280;47282;53.362;-2.222;2022-11-20T11:58:12;99630.62;;;20.84;50.83
47218;BME280;47282;53.362;-2.222;2022-11-20T12:00:54;99620.38;;;21.43;49.37
47218;BME280;47282;53.362;-2.222;2022-11-20T12:03:28;99615.29;;;22.09;48.05
47218;BME280;47282;53.362;-2.222;2022-11-20T12:06:03;99613.08;;;22.11;47.03
47218;BME280;47282;53.362;-2.222;2022-11-20T12:08:41;99612.90;;;21.66;47.03
47218;BME280;47282;53.362;-2.222;2022-11-20T12:11:19;99606.29;;;20.77;47.95
47218;BME280;47282;53.362;-2.222;2022-11-20T12:13:53;99603.09;;;19.58;49.26
47218;BME280;47282;53.362;-2.222;2022-11-20T12:16:22;99601.19;;;18.26;52.43
47218;BME280;47282;53.362;-2.222;2022-11-20T12:18:52;99599.17;;;17.03;54.34
47218;BME280;47282;53.362;-2.222;2022-11-20T12:21:28;99596.03;;;16.23;56.22
47218;BME280;47282;53.362;-2.222;2022-11-20T12:24:09;99595.97;;;15.42;58.06
47218;BME280;47282;53.362;-2.222;2022-11-20T12:26:53;99595.63;;;14.60;60.69
47218;BME280;47282;53.362;-2.222;2022-11-20T12:29:34;99593.19;;;13.47;62.68
47218;BME280;47282;53.362;-2.222;2022-11-20T12:32:29;99590.28;;;12.96;64.50
47218;BME280;47282;53.362;-2.222;2022-11-20T12:35:05;99596.55;;;12.65;65.07
47218;BME280;47282;53.362;-2.222;2022-11-20T12:37:48;99604.22;;;12.44;66.31
47218;BME280;47282;53.362;-2.222;2022-11-20T12:40:31;99611.40;;;12.32;67.23
47218;BME280;47282;53.362;-2.222;2022-11-20T12:43:13;99612.68;;;11.93;67.92
47218;BME280;47282;53.362;-2.222;2022-11-20T12:45:58;99613.94;;;11.52;68.75
47218;BME280;47282;53.362;-2.222;2022-11-20T12:48:53;99616.54;;;11.38;69.46
47218;BME280;47282;53.362;-2.222;2022-11-20T12:51:45;99615.71;;;10.76;70.26
47218;BME280;47282;53.362;-2.222;2022-11-20T12:55:01;99623.99;;;10.89;70.84
47218;BME280;47282;53.362;-2.222;2022-11-20T12:57:37;99622.77;;;10.60;71.52
47218;BME280;47282;53.362;-2.222;2022-11-20T13:00:14;99623.58;;;10.41;72.09
47218;BME280;47282;53.362;-2.222;2022-11-20T13:03:30;99621.30;;;10.29;72.46
47218;BME280;47282;53.362;-2.222;2022-11-20T13:06:10;99612.23;;;10.21;72.99
47218;BME280;47282;53.362;-2.222;2022-11-20T13:08:41;99611.90;;;10.20;73.27
47218;BME280;47282;53.362;-2.222;2022-11-20T13:11:15;99609.30;;;10.21;73.41
47218;BME280;47282;53.362;-2.222;2022-11-20T13:14:08;99608.01;;;10.21;73.57
47218;BME280;47282;53.362;-2.222;2022-11-20T13:16:46;99606.92;;;10.20;73.68
47218;BME280;47282;53.362;-2.222;2022-11-20T13:19:17;99602.22;;;10.40;73.97
47218;BME280;47282;53.362;-2.222;2022-11-20T13:21:47;99602.21;;;10.08;74.25
47218;BME280;47282;53.362;-2.222;2022-11-20T13:24:25;99601.87;;;9.98;74.49
47218;BME280;47282;53.362;-2.222;2022-11-20T13:27:03;99607.11;;;9.89;74.76
47218;BME280;47282;53.362;-2.222;2022-11-20T13:29:32;99609.06;;;9.77;75.11
47218;BME280;47282;53.362;-2.222;2022-11-20T13:32:04;99610.36;;;9.62;75.51
47218;BME280;47282;53.362;-2.222;2022-11-20T13:34:34;99613.23;;;9.46;75.74
47218;BME280;47282;53.362;-2.222;2022-11-20T13:37:02;99612.55;;;9.85;75.96
47218;BME280;47282;53.362;-2.222;2022-11-20T13:39:32;99613.57;;;9.58;76.11
47218;BME280;47282;53.362;-2.222;2022-11-20T13:42:15;99614.44;;;9.30;76.19
47218;BME280;47282;53.362;-2.222;2022-11-20T13:44:53;99614.80;;;9.29;76.17
47218;BME280;47282;53.362;-2.222;2022-11-20T13:47:23;99610.56;;;9.26;76.29
47218;BME280;47282;53.362;-2.222;2022-11-20T13:49:53;99604.45;;;9.54;76.36
47218;BME280;47282;53.362;-2.222;2022-11-20T13:52:34;99601.96;;;9.29;76.30
47218;BME280;47282;53.362;-2.222;2022-11-20T13:55:15;99597.37;;;9.80;76.22
47218;BME280;47282;53.362;-2.222;2022-11-20T13:58:00;99596.38;;;9.58;76.30
47218;BME280;47282;53.362;-2.222;2022-11-20T14:00:31;99596.10;;;9.29;76.53
47218;BME280;47282;53.362;-2.222;2022-11-20T14:03:05;99597.09;;;9.54;76.54
47218;BME280;47282;53.362;-2.222;2022-11-20T14:05:39;99594.20;;;9.23;76.64
47218;BME280;47282;53.362;-2.222;2022-11-20T14:08:15;99594.25;;;9.16;76.62
47218;BME280;47282;53.362;-2.222;2022-11-20T14:10:45;99596.93;;;9.09;76.65
47218;BME280;47282;53.362;-2.222;2022-11-20T14:13:19;99598.78;;;9.25;76.81
47218;BME280;47282;53.362;-2.222;2022-11-20T14:15:47;99600.21;;;8.88;76.81
47218;BME280;47282;53.362;-2.222;2022-11-20T14:18:20;99598.32;;;9.00;76.99
47218;BME280;47282;53.362;-2.222;2022-11-20T14:20:48;99603.27;;;8.88;76.79
47218;BME280;47282;53.362;-2.222;2022-11-20T14:23:25;99604.63;;;9.30;75.42
47218;BME280;47282;53.362;-2.222;2022-11-20T14:25:53;99609.68;;;8.88;76.30
47218;BME280;47282;53.362;-2.222;2022-11-20T14:28:25;99613.69;;;9.02;76.18
47218;BME280;47282;53.362;-2.222;2022-11-20T14:30:55;99613.14;;;8.64;76.42
47218;BME280;47282;53.362;-2.222;2022-11-20T14:33:26;99611.71;;;8.52;76.51
47218;BME280;47282;53.362;-2.222;2022-11-20T14:35:56;99614.30;;;8.40;76.52
47218;BME280;47282;53.362;-2.222;2022-11-20T14:38:27;99618.36;;;8.25;76.43
47218;BME280;47282;53.362;-2.222;2022-11-20T14:41:06;99612.92;;;8.10;76.16
47218;BME280;47282;53.362;-2.222;2022-11-20T14:43:34;99616.90;;;8.17;76.05
47218;BME280;47282;53.362;-2.222;2022-11-20T14:46:05;99616.70;;;7.78;75.79
47218;BME280;47282;53.362;-2.222;2022-11-20T14:48:38;99618.01;;;7.79;76.19
47218;BME280;47282;53.362;-2.222;2022-11-20T14:51:09;99619.34;;;7.90;76.37
47218;BME280;47282;53.362;-2.222;2022-11-20T14:53:37;99630.54;;;7.73;76.56
47218;BME280;47282;53.362;-2.222;2022-11-20T14:56:05;99637.52;;;7.54;76.75
47218;BME280;47282;53.362;-2.222;2022-11-20T14:58:34;99640.03;;;7.34;76.91
47218;BME280;47282;53.362;-2.222;2022-11-20T15:01:04;99637.77;;;7.14;77.17
47218;BME280;47282;53.362;-2.222;2022-11-20T15:03:34;99646.01;;;6.91;77.56
47218;BME280;47282;53.362;-2.222;2022-11-20T15:06:03;99647.85;;;6.94;77.56
47218;BME280;47282;53.362;-2.222;2022-11-20T15:08:31;99652.26;;;6.53;78.01
47218;BME280;47282;53.362;-2.222;2022-11-20T15:10:59;99657.15;;;6.91;77.92
47218;BME280;47282;53.362;-2.222;2022-11-20T15:13:30;99663.09;;;6.79;77.89
47218;BME280;47282;53.362;-2.222;2022-11-20T15:16:00;99664.88;;;6.38;77.71
47218;BME280;47282;53.362;-2.222;2022-11-20T15:18:31;99678.59;;;6.46;77.90
47218;BME280;47282;53.362;-2.222;2022-11-20T15:21:02;99692.67;;;6.33;78.24
47218;BME280;47282;53.362;-2.222;2022-11-20T15:23:31;99697.70;;;6.40;78.38
47218;BME280;47282;53.362;-2.222;2022-11-20T15:25:59;99703.58;;;5.97;78.48
47218;BME280;47282;53.362;-2.222;2022-11-20T15:28:30;99705.20;;;5.79;78.62
47218;BME280;47282;53.362;-2.222;2022-11-20T15:31:00;99705.78;;;5.81;78.77
47218;BME280;47282;53.362;-2.222;2022-11-20T15:33:28;99706.51;;;5.42;79.04
47218;BME280;47282;53.362;-2.222;2022-11-20T15:35:57;99706.26;;;5.47;79.32
47218;BME280;47282;53.362;-2.222;2022-11-20T15:38:25;99707.45;;;5.55;79.27
47218;BME280;47282;53.362;-2.222;2022-11-20T15:40:53;99703.92;;;5.16;79.49
47218;BME280;47282;53.362;-2.222;2022-11-20T15:43:22;99696.87;;;5.22;79.70
47218;BME280;47282;53.362;-2.222;2022-11-20T15:45:51;99695.52;;;5.12;79.88
47218;BME280;47282;53.362;-2.222;2022-11-20T15:48:26;99687.52;;;5.39;78.80
47218;BME280;47282;53.362;-2.222;2022-11-20T15:50:58;99687.54;;;5.26;79.01
47218;BME280;47282;53.362;-2.222;2022-11-20T15:53:27;99686.16;;;4.82;79.83
47218;BME280;47282;53.362;-2.222;2022-11-20T15:55:55;99689.18;;;4.98;80.16
47218;BME280;47282;53.362;-2.222;2022-11-20T15:58:23;99691.89;;;5.00;80.25
47218;BME280;47282;53.362;-2.222;2022-11-20T16:00:53;117616.14;;;-221.72;0.00
47218;BME280;47282;53.362;-2.222;2022-11-20T16:03:24;99685.37;;;5.35;79.53
47218;BME280;47282;53.362;-2.222;2022-11-20T16:06:02;99690.63;;;4.29;78.44
47218;BME280;47282;53.362;-2.222;2022-11-20T16:08:31;99700.66;;;5.03;79.56
47218;BME280;47282;53.362;-2.222;2022-11-20T16:10:59;99697.35;;;5.41;79.64
47218;BME280;47282;53.362;-2.222;2022-11-20T16:13:27;99699.15;;;5.25;79.90
47218;BME280;47282;53.362;-2.222;2022-11-20T16:15:58;99705.48;;;5.10;80.24
47218;BME280;47282;53.362;-2.222;2022-11-20T16:18:26;99707.73;;;5.00;80.57
47218;BME280;47282;53.362;-2.222;2022-11-20T16:20:55;99704.76;;;4.92;80.82
47218;BME280;47282;53.362;-2.222;2022-11-20T16:23:23;99709.69;;;4.85;80.86
47218;BME280;47282;53.362;-2.222;2022-11-20T16:25:51;99711.44;;;4.58;80.87
47218;BME280;47282;53.362;-2.222;2022-11-20T16:28:19;99711.85;;;4.97;80.97
47218;BME280;47282;53.362;-2.222;2022-11-20T16:30:47;99710.85;;;4.63;81.06
47218;BME280;47282;53.362;-2.222;2022-11-20T16:33:17;99713.09;;;4.54;80.89
47218;BME280;47282;53.362;-2.222;2022-11-20T16:35:45;99708.12;;;4.41;80.68
47218;BME280;47282;53.362;-2.222;2022-11-20T16:38:13;99708.13;;;4.72;80.43
47218;BME280;47282;53.362;-2.222;2022-11-20T16:40:41;99709.64;;;4.58;80.98
47218;BME280;47282;53.362;-2.222;2022-11-20T16:43:10;99710.70;;;4.50;81.53
47218;BME280;47282;53.362;-2.222;2022-11-20T16:45:41;99702.45;;;4.21;81.64
47218;BME280;47282;53.362;-2.222;2022-11-20T16:48:14;99696.49;;;3.89;81.78
47218;BME280;47282;53.362;-2.222;2022-11-20T16:50:46;99700.25;;;4.10;81.97
47218;BME280;47282;53.362;-2.222;2022-11-20T16:53:14;99700.33;;;4.30;82.16
47218;BME280;47282;53.362;-2.222;2022-11-20T16:55:42;99705.19;;;4.31;82.32
47218;BME280;47282;53.362;-2.222;2022-11-20T16:58:10;99705.51;;;4.12;82.37
47218;BME280;47282;53.362;-2.222;2022-11-20T17:00:39;99711.91;;;4.15;82.46
47218;BME280;47282;53.362;-2.222;2022-11-20T17:03:07;99721.99;;;4.44;82.44
47218;BME280;47282;53.362;-2.222;2022-11-20T17:05:35;99714.74;;;4.50;82.36
47218;BME280;47282;53.362;-2.222;2022-11-20T17:08:04;99714.84;;;4.00;82.31
47218;BME280;47282;53.362;-2.222;2022-11-20T17:10:32;99716.26;;;4.01;82.35
47218;BME280;47282;53.362;-2.222;2022-11-20T17:13:00;99724.81;;;4.48;82.29
47218;BME280;47282;53.362;-2.222;2022-11-20T17:15:28;99735.48;;;4.25;82.39
47218;BME280;47282;53.362;-2.222;2022-11-20T17:17:55;99743.55;;;4.48;82.48
47218;BME280;47282;53.362;-2.222;2022-11-20T17:20:23;99749.64;;;4.28;82.50
47218;BME280;47282;53.362;-2.222;2022-11-20T17:22:51;99742.21;;;4.51;82.44
47218;BME280;47282;53.362;-2.222;2022-11-20T17:25:19;99742.22;;;4.00;82.51
47218;BME280;47282;53.362;-2.222;2022-11-20T17:27:47;99741.18;;;4.23;82.38
47218;BME280;47282;53.362;-2.222;2022-11-20T17:30:15;99741.84;;;4.17;82.37
47218;BME280;47282;53.362;-2.222;2022-11-20T17:32:43;99740.04;;;4.35;82.29
47218;BME280;47282;53.362;-2.222;2022-11-20T17:35:11;99738.23;;;4.29;82.44
47218;BME280;47282;53.362;-2.222;2022-11-20T17:37:39;99742.84;;;4.22;82.41
47218;BME280;47282;53.362;-2.222;2022-11-20T17:40:08;99743.21;;;4.15;82.43
47218;BME280;47282;53.362;-2.222;2022-11-20T17:42:35;99742.39;;;4.12;82.72
47218;BME280;47282;53.362;-2.222;2022-11-20T17:45:04;99747.02;;;4.10;82.77
47218;BME280;47282;53.362;-2.222;2022-11-20T17:47:34;99745.60;;;4.07;82.89
47218;BME280;47282;53.362;-2.222;2022-11-20T17:50:03;99742.39;;;4.05;82.83
47218;BME280;47282;53.362;-2.222;2022-11-20T17:52:31;99747.17;;;4.04;82.73
47218;BME280;47282;53.362;-2.222;2022-11-20T17:54:59;99750.02;;;3.98;82.49
47218;BME280;47282;53.362;-2.222;2022-11-20T17:57:27;99747.75;;;3.91;82.50
47218;BME280;47282;53.362;-2.222;2022-11-20T17:59:55;99737.04;;;3.83;82.25
47218;BME280;47282;53.362;-2.222;2022-11-20T18:02:23;99735.47;;;3.73;82.07
47218;BME280;47282;53.362;-2.222;2022-11-20T18:04:51;99737.72;;;3.65;81.80
47218;BME280;47282;53.362;-2.222;2022-11-20T18:07:19;99737.76;;;3.54;81.78
